createdAt,value
2023-02-14T00:02:54.250Z,26.92
2023-02-14T00:07:56.376Z,30.02
2023-02-14T00:12:58.209Z,31.35
2023-02-14T00:18:00.345Z,30.98
2023-02-14T00:23:02.184Z,29.73
2023-02-14T00:28:04.029Z,31.95
2023-02-14T00:33:05.842Z,29.25
2023-02-14T00:38:08.036Z,28.15
2023-02-14T00:43:09.846Z,31.60
2023-02-14T00:48:11.771Z,28.88
2023-02-14T00:53:14.016Z,32.15
2023-02-14T00:58:15.796Z,35.92
2023-02-14T01:03:17.733Z,29.83
2023-02-14T01:08:20.252Z,26.42
2023-02-14T01:13:22.488Z,30.95
2023-02-14T01:18:24.448Z,33.92
2023-02-14T01:23:26.263Z,34.70
2023-02-14T01:28:28.211Z,35.45
2023-02-14T01:33:29.993Z,35.10
2023-02-14T01:38:32.205Z,35.25
2023-02-14T01:43:58.164Z,34.28
2023-02-14T01:49:31.367Z,30.52
2023-02-14T01:54:37.796Z,34.08
2023-02-14T01:59:45.470Z,32.47
2023-02-14T02:04:47.470Z,32.75
2023-02-14T02:10:09.834Z,30.80
2023-02-14T02:15:12.161Z,35.53
2023-02-14T02:20:29.362Z,38.53
2023-02-14T02:25:31.084Z,31.13
2023-02-14T02:30:51.650Z,33.35
2023-02-14T02:36:13.296Z,21.85
2023-02-14T02:41:34.191Z,27.23
2023-02-14T02:46:55.203Z,30.67
2023-02-14T02:52:18.537Z,26.77
2023-02-14T02:57:27.186Z,23.27
2023-02-14T03:02:33.098Z,27.27
2023-02-14T03:07:40.645Z,27.48
2023-02-14T03:12:54.479Z,30.20
2023-02-14T03:18:29.581Z,28.75
2023-02-14T03:23:38.891Z,31.27
2023-02-14T03:29:01.759Z,28.42
2023-02-14T03:34:24.077Z,34.15
2023-02-14T03:39:32.833Z,33.65
2023-02-14T03:44:36.926Z,30.38
2023-02-14T03:49:45.466Z,36.10
2023-02-14T03:54:52.260Z,31.70
2023-02-14T03:59:55.357Z,26.80
2023-02-14T04:04:59.366Z,33.42
2023-02-14T04:10:01.126Z,26.85
2023-02-14T04:15:03.026Z,26.02
2023-02-14T04:20:05.761Z,26.80
2023-02-14T04:25:07.683Z,28.10
2023-02-14T04:30:10.461Z,28.73
2023-02-14T04:35:12.432Z,30.27
2023-02-14T04:40:17.362Z,25.05
2023-02-14T04:45:19.187Z,25.98
2023-02-14T04:50:23.373Z,27.02
2023-02-14T04:55:25.261Z,29.83
2023-02-14T05:00:27.199Z,30.48
2023-02-14T05:05:28.994Z,29.55
2023-02-14T05:10:30.902Z,30.02
2023-02-14T05:15:32.821Z,24.95
2023-02-14T05:20:34.638Z,27.67
2023-02-14T05:25:36.455Z,28.45
2023-02-14T05:30:38.738Z,30.30
2023-02-14T05:35:40.606Z,27.90
2023-02-14T05:40:43.384Z,30.13
2023-02-14T05:45:45.207Z,30.50
2023-02-14T05:50:47.299Z,36.65
2023-02-14T05:55:49.085Z,28.35
2023-02-14T06:00:51.122Z,27.05
2023-02-14T06:05:52.991Z,29.67
2023-02-14T06:10:54.784Z,28.83
2023-02-14T06:15:56.660Z,29.42
2023-02-14T06:20:58.709Z,29.00
2023-02-14T06:26:00.674Z,30.45
2023-02-14T06:31:03.153Z,36.08
2023-02-14T06:36:05.374Z,31.40
2023-02-14T06:41:09.462Z,32.42
2023-02-14T06:46:11.763Z,37.67
2023-02-14T06:51:14.012Z,36.17
2023-02-14T06:56:15.847Z,35.47
2023-02-14T07:01:17.709Z,35.08
2023-02-14T07:06:19.654Z,30.38
2023-02-14T07:11:21.455Z,37.55
2023-02-14T07:16:23.355Z,38.20
2023-02-14T07:21:25.503Z,35.30
2023-02-14T07:26:27.464Z,38.25
2023-02-14T07:31:29.313Z,39.05
2023-02-14T07:36:31.200Z,31.83
2023-02-14T07:41:33.165Z,34.75
2023-02-14T07:46:35.019Z,39.75
2023-02-14T07:51:37.014Z,40.20
2023-02-14T07:56:38.846Z,43.15
2023-02-14T08:01:40.683Z,34.20
2023-02-14T08:06:43.707Z,37.55
2023-02-14T08:12:04.010Z,35.08
2023-02-14T08:17:07.360Z,29.85
2023-02-14T08:22:09.539Z,47.03
2023-02-14T08:27:11.587Z,35.60
2023-02-14T08:32:16.303Z,38.00
2023-02-14T08:37:18.143Z,39.95
2023-02-14T08:42:19.925Z,44.50
2023-02-14T08:47:21.752Z,48.53
2023-02-14T08:52:23.563Z,39.70
2023-02-14T08:57:27.606Z,35.53
2023-02-14T09:02:29.379Z,40.55
2023-02-14T09:07:31.198Z,42.45
2023-02-14T09:12:32.986Z,47.97
2023-02-14T09:17:35.233Z,41.83
2023-02-14T09:22:37.180Z,63.92
2023-02-14T09:27:39.641Z,42.65
2023-02-14T09:32:41.543Z,46.65
2023-02-14T09:37:43.596Z,42.40
2023-02-14T09:42:51.293Z,40.05
2023-02-14T09:47:56.813Z,39.85
2023-02-14T09:53:03.067Z,41.58
2023-02-14T09:58:28.706Z,33.78
2023-02-14T10:03:45.859Z,43.53
2023-02-14T10:09:07.629Z,42.53
2023-02-14T10:14:18.135Z,43.42
2023-02-14T10:19:26.964Z,28.08
2023-02-14T10:24:38.429Z,32.78
2023-02-14T10:29:41.724Z,41.47
2023-02-14T10:34:56.865Z,40.03
2023-02-14T10:40:23.808Z,42.08
2023-02-14T10:45:56.474Z,37.72
2023-02-14T10:51:12.674Z,35.13
2023-02-14T10:56:27.005Z,37.05
2023-02-14T11:01:29.115Z,38.17
2023-02-14T11:06:31.327Z,31.00
2023-02-14T11:11:47.761Z,34.00
2023-02-14T11:16:52.040Z,33.17
2023-02-14T11:21:56.681Z,30.23
2023-02-14T11:27:05.253Z,35.10
2023-02-14T11:32:20.176Z,36.17
2023-02-14T11:37:31.437Z,34.33
2023-02-14T11:42:45.511Z,30.77
2023-02-14T11:47:47.342Z,34.40
2023-02-14T11:52:55.612Z,29.65
2023-02-14T11:57:58.195Z,36.08
2023-02-14T12:03:03.397Z,33.97
2023-02-14T12:08:08.163Z,32.08
2023-02-14T12:13:10.476Z,29.10
2023-02-14T12:18:24.168Z,31.30
2023-02-14T12:23:39.396Z,29.55
2023-02-14T12:28:51.146Z,31.17
2023-02-14T12:33:53.390Z,25.88
2023-02-14T12:39:19.946Z,32.85
2023-02-14T12:44:48.847Z,30.45
2023-02-14T12:50:15.979Z,30.95
2023-02-14T12:55:40.812Z,29.02
2023-02-14T13:00:48.702Z,30.98
2023-02-14T13:06:12.840Z,27.20
2023-02-14T13:11:53.056Z,34.00
2023-02-14T13:17:03.529Z,31.27
2023-02-14T13:22:06.980Z,31.75
2023-02-14T13:27:14.052Z,29.73
2023-02-14T13:32:19.975Z,29.40
2023-02-14T13:37:25.098Z,29.02
2023-02-14T13:42:48.916Z,27.40
2023-02-14T13:48:06.836Z,26.73
2023-02-14T13:53:12.926Z,30.60
2023-02-14T13:58:21.755Z,32.20
2023-02-14T14:03:29.991Z,33.00
2023-02-14T14:08:32.042Z,27.85
2023-02-14T14:13:42.958Z,27.35
2023-02-14T14:18:45.083Z,31.27
2023-02-14T14:24:20.858Z,29.02
2023-02-14T14:29:40.079Z,31.92
2023-02-14T14:34:52.361Z,28.98
2023-02-14T14:40:00.359Z,29.65
2023-02-14T14:45:06.861Z,28.75
2023-02-14T14:50:17.131Z,31.98
2023-02-14T14:55:28.651Z,29.58
2023-02-14T15:00:35.752Z,29.75
2023-02-14T15:05:45.985Z,29.48
2023-02-14T15:10:52.525Z,31.20
2023-02-14T15:15:54.330Z,28.92
2023-02-14T15:20:56.313Z,28.58
2023-02-14T15:25:58.196Z,28.95
2023-02-14T15:31:06.222Z,26.20
2023-02-14T15:36:15.486Z,28.08
2023-02-14T15:41:17.977Z,27.83
2023-02-14T15:46:19.894Z,25.73
2023-02-14T15:51:25.727Z,33.72
2023-02-14T15:56:36.909Z,30.98
2023-02-14T16:01:39.482Z,27.60
2023-02-14T16:06:44.819Z,40.22
2023-02-14T16:11:48.584Z,28.38
2023-02-14T16:16:58.153Z,27.30
2023-02-14T16:21:59.986Z,31.60
2023-02-14T16:27:06.840Z,26.65
2023-02-14T16:32:16.137Z,27.60
2023-02-14T16:37:31.030Z,31.25
2023-02-14T16:42:33.039Z,34.78
2023-02-14T16:47:34.862Z,36.00
2023-02-14T16:52:36.871Z,27.05
2023-02-14T16:57:42.841Z,36.15
2023-02-14T17:02:44.985Z,31.83
2023-02-14T17:07:46.811Z,31.05
2023-02-14T17:12:50.368Z,34.17
2023-02-14T17:17:59.203Z,35.70
2023-02-14T17:23:01.214Z,29.95
2023-02-14T17:28:03.252Z,33.55
2023-02-14T17:33:05.266Z,30.15
2023-02-14T17:38:07.387Z,32.38
2023-02-14T17:43:09.159Z,36.20
2023-02-14T17:48:11.858Z,38.33
2023-02-14T17:53:13.813Z,34.95
2023-02-14T17:58:15.633Z,40.47
2023-02-14T18:03:17.407Z,42.58
2023-02-14T18:08:20.847Z,41.28
2023-02-14T18:13:26.256Z,44.03
2023-02-14T18:18:28.204Z,39.42
2023-02-14T18:23:31.261Z,46.40
2023-02-14T18:28:34.418Z,42.40
2023-02-14T18:33:36.781Z,42.28
2023-02-14T18:38:40.228Z,45.45
2023-02-14T18:43:42.548Z,40.20
2023-02-14T18:48:45.148Z,37.63
2023-02-14T18:53:47.777Z,49.42
2023-02-14T18:58:52.862Z,42.15
2023-02-14T19:03:54.878Z,62.15
2023-02-14T19:08:57.537Z,52.33
2023-02-14T19:14:01.465Z,57.10
2023-02-14T19:19:03.714Z,51.85
2023-02-14T19:24:09.685Z,48.22
2023-02-14T19:29:14.593Z,46.85
2023-02-14T19:34:22.241Z,53.13
2023-02-14T19:39:24.583Z,50.38
2023-02-14T19:44:26.595Z,47.05
2023-02-14T19:49:29.652Z,56.78
2023-02-14T19:54:31.429Z,50.38
2023-02-14T19:59:33.346Z,58.42
2023-02-14T20:04:35.165Z,45.80
2023-02-14T20:09:38.183Z,52.63
2023-02-14T20:14:50.749Z,55.38
2023-02-14T20:19:53.545Z,48.70
2023-02-14T20:24:55.337Z,53.55
2023-02-14T20:29:57.265Z,54.55
2023-02-14T20:34:59.581Z,55.55
2023-02-14T20:40:01.724Z,52.20
2023-02-14T20:45:03.726Z,51.45
2023-02-14T20:50:06.471Z,58.60
2023-02-14T20:55:08.405Z,55.38
2023-02-14T21:00:10.760Z,55.25
2023-02-14T21:05:18.362Z,45.00
2023-02-14T21:10:20.360Z,44.83
2023-02-14T21:15:22.567Z,52.70
2023-02-14T21:20:24.594Z,55.55
2023-02-14T21:25:26.770Z,55.28
2023-02-14T21:30:31.047Z,48.70
2023-02-14T21:35:36.445Z,55.17
2023-02-14T21:40:38.223Z,52.75
2023-02-14T21:45:55.275Z,50.30
2023-02-14T21:50:57.060Z,47.10
2023-02-14T21:56:12.143Z,48.03
2023-02-14T22:01:23.414Z,57.25
2023-02-14T22:06:26.324Z,59.05
2023-02-14T22:11:29.468Z,48.65
2023-02-14T22:16:31.711Z,61.75
2023-02-14T22:21:34.262Z,49.70
2023-02-14T22:26:43.269Z,55.83
2023-02-14T22:31:45.239Z,52.85
2023-02-14T22:36:48.698Z,59.15
2023-02-14T22:41:50.494Z,58.05
2023-02-14T22:46:52.485Z,55.15
2023-02-14T22:51:54.411Z,51.22
2023-02-14T22:56:56.628Z,54.55
2023-02-14T23:01:58.591Z,55.88
2023-02-14T23:07:00.516Z,61.30
2023-02-14T23:12:02.298Z,59.08
2023-02-14T23:17:18.893Z,56.72
2023-02-14T23:22:24.831Z,50.83
2023-02-14T23:27:41.985Z,52.20
2023-02-14T23:32:44.648Z,56.30
2023-02-14T23:37:46.690Z,44.17
2023-02-14T23:42:48.536Z,44.25
2023-02-14T23:47:50.412Z,48.88
2023-02-14T23:52:52.187Z,50.97
2023-02-14T23:57:53.956Z,53.58
